Terminal Aerodrome Forecast
Issued by NWS

Home | Current Version | Previous Version | Text Only | Print | Product List | Glossary On
Versions: 1 2 3 4 5 6 7 8 9 10 11 12 13 14 15 16 17 18 19 20 21 22 23
000
FTUS43 KIND 202326
TAFHUF
TAF
KHUF 202326Z 2100/2124 20017G30KT P6SM OVC070
     FM210200 19011G22KT P6SM VCSH OVC080 WS020/20045KT
     FM210400 21011KT 5SM SHRA OVC030
     FM210600 31011KT 3SM SHRA OVC008
     FM211200 34011KT P6SM -SHRA OVC010
     FM212300 03009KT P6SM OVC050=

USA.gov is the U.S. government's official web portal to all federal, state and local government web resources and services.